sensor_id;sensor_type;location;lat;lon;timestamp;pressure;altitude;pressure_sealevel;temperature;humidity
45763;BME280;37512;52.408;13.356;2022-12-18T00:01:57;102812.81;;;-7.36;100.00
45763;BME280;37512;52.408;13.356;2022-12-18T00:06:02;102819.75;;;-7.27;100.00
45763;BME280;37512;52.408;13.356;2022-12-18T00:10:04;102821.56;;;-7.34;100.00
45763;BME280;37512;52.408;13.356;2022-12-18T00:14:06;102825.72;;;-7.74;100.00
45763;BME280;37512;52.408;13.356;2022-12-18T00:18:08;102826.28;;;-7.58;100.00
45763;BME280;37512;52.408;13.356;2022-12-18T00:22:10;102821.59;;;-7.49;100.00
45763;BME280;37512;52.408;13.356;2022-12-18T00:26:16;102824.88;;;-7.53;100.00
45763;BME280;37512;52.408;13.356;2022-12-18T00:30:18;102821.78;;;-7.72;100.00
45763;BME280;37512;52.408;13.356;2022-12-18T00:34:19;102812.22;;;-7.53;100.00
45763;BME280;37512;52.408;13.356;2022-12-18T00:38:21;102809.97;;;-7.49;100.00
45763;BME280;37512;52.408;13.356;2022-12-18T00:42:22;102808.75;;;-7.47;100.00
45763;BME280;37512;52.408;13.356;2022-12-18T00:46:43;102812.75;;;-7.43;100.00
45763;BME280;37512;52.408;13.356;2022-12-18T00:50:45;102813.56;;;-7.42;100.00
45763;BME280;37512;52.408;13.356;2022-12-18T00:54:48;102811.66;;;-7.70;100.00
45763;BME280;37512;52.408;13.356;2022-12-18T00:58:50;102818.38;;;-7.81;100.00
45763;BME280;37512;52.408;13.356;2022-12-18T01:02:51;102810.50;;;-7.61;100.00
45763;BME280;37512;52.408;13.356;2022-12-18T01:06:53;102811.19;;;-7.73;100.00
45763;BME280;37512;52.408;13.356;2022-12-18T01:10:55;102804.34;;;-7.54;100.00
45763;BME280;37512;52.408;13.356;2022-12-18T01:14:56;102812.75;;;-7.43;100.00
45763;BME280;37512;52.408;13.356;2022-12-18T01:18:58;102817.38;;;-7.37;100.00
45763;BME280;37512;52.408;13.356;2022-12-18T01:22:59;102820.31;;;-7.31;100.00
45763;BME280;37512;52.408;13.356;2022-12-18T01:27:01;102834.22;;;-7.92;100.00
45763;BME280;37512;52.408;13.356;2022-12-18T01:31:24;102845.38;;;-7.59;100.00
45763;BME280;37512;52.408;13.356;2022-12-18T01:35:26;102839.84;;;-7.51;100.00
45763;BME280;37512;52.408;13.356;2022-12-18T01:39:27;102839.06;;;-7.45;100.00
45763;BME280;37512;52.408;13.356;2022-12-18T01:43:56;102840.75;;;-7.44;100.00
45763;BME280;37512;52.408;13.356;2022-12-18T01:48:03;102845.88;;;-7.70;100.00
45763;BME280;37512;52.408;13.356;2022-12-18T01:52:06;102849.09;;;-7.60;100.00
45763;BME280;37512;52.408;13.356;2022-12-18T01:56:11;102849.00;;;-8.03;100.00
45763;BME280;37512;52.408;13.356;2022-12-18T02:00:17;102848.53;;;-7.92;100.00
45763;BME280;37512;52.408;13.356;2022-12-18T02:04:25;102843.63;;;-7.67;100.00
45763;BME280;37512;52.408;13.356;2022-12-18T02:08:34;102850.44;;;-7.49;100.00
45763;BME280;37512;52.408;13.356;2022-12-18T02:16:50;102850.97;;;-7.75;100.00
45763;BME280;37512;52.408;13.356;2022-12-18T02:25:59;102872.19;;;-7.72;100.00
45763;BME280;37512;52.408;13.356;2022-12-18T02:30:04;102863.91;;;-7.71;100.00
45763;BME280;37512;52.408;13.356;2022-12-18T02:34:08;102866.59;;;-8.07;100.00
45763;BME280;37512;52.408;13.356;2022-12-18T02:38:11;102867.44;;;-8.22;100.00
45763;BME280;37512;52.408;13.356;2022-12-18T02:42:14;102878.56;;;-7.95;100.00
45763;BME280;37512;52.408;13.356;2022-12-18T02:46:38;102868.94;;;-7.83;100.00
45763;BME280;37512;52.408;13.356;2022-12-18T02:55:08;102870.81;;;-7.83;100.00
45763;BME280;37512;52.408;13.356;2022-12-18T02:59:19;102876.84;;;-8.47;100.00
45763;BME280;37512;52.408;13.356;2022-12-18T03:03:53;102875.22;;;-8.12;100.00
45763;BME280;37512;52.408;13.356;2022-12-18T03:08:01;102885.25;;;-7.91;100.00
45763;BME280;37512;52.408;13.356;2022-12-18T03:12:18;102877.81;;;-7.89;100.00
45763;BME280;37512;52.408;13.356;2022-12-18T03:16:29;102879.22;;;-7.93;100.00
45763;BME280;37512;52.408;13.356;2022-12-18T03:20:34;102887.72;;;-7.74;100.00
45763;BME280;37512;52.408;13.356;2022-12-18T03:24:37;102883.25;;;-7.67;100.00
45763;BME280;37512;52.408;13.356;2022-12-18T03:28:47;102884.34;;;-7.98;100.00
45763;BME280;37512;52.408;13.356;2022-12-18T03:37:15;102892.78;;;-7.86;100.00
45763;BME280;37512;52.408;13.356;2022-12-18T03:42:01;102881.28;;;-7.73;100.00
45763;BME280;37512;52.408;13.356;2022-12-18T03:46:15;102872.41;;;-7.89;100.00
45763;BME280;37512;52.408;13.356;2022-12-18T03:50:45;102882.16;;;-7.88;100.00
45763;BME280;37512;52.408;13.356;2022-12-18T03:54:48;102873.91;;;-7.86;100.00
45763;BME280;37512;52.408;13.356;2022-12-18T03:58:50;102875.28;;;-7.90;100.00
45763;BME280;37512;52.408;13.356;2022-12-18T04:02:55;102881.03;;;-7.79;100.00
45763;BME280;37512;52.408;13.356;2022-12-18T04:06:58;102881.66;;;-8.28;100.00
45763;BME280;37512;52.408;13.356;2022-12-18T04:11:01;102886.66;;;-8.25;100.00
45763;BME280;37512;52.408;13.356;2022-12-18T04:15:03;102891.69;;;-8.07;100.00
45763;BME280;37512;52.408;13.356;2022-12-18T04:19:05;102887.16;;;-7.85;100.00
45763;BME280;37512;52.408;13.356;2022-12-18T04:23:06;102896.78;;;-7.97;100.00
45763;BME280;37512;52.408;13.356;2022-12-18T04:27:09;102913.03;;;-7.90;100.00
45763;BME280;37512;52.408;13.356;2022-12-18T04:31:10;102907.34;;;-7.81;100.00
45763;BME280;37512;52.408;13.356;2022-12-18T04:35:12;102893.13;;;-7.74;100.00
45763;BME280;37512;52.408;13.356;2022-12-18T04:39:14;102903.03;;;-7.60;100.00
45763;BME280;37512;52.408;13.356;2022-12-18T04:43:15;102914.13;;;-7.70;100.00
45763;BME280;37512;52.408;13.356;2022-12-18T04:47:17;102906.78;;;-7.76;100.00
45763;BME280;37512;52.408;13.356;2022-12-18T04:51:18;102912.00;;;-7.74;100.00
45763;BME280;37512;52.408;13.356;2022-12-18T04:55:27;102912.81;;;-7.74;100.00
45763;BME280;37512;52.408;13.356;2022-12-18T04:59:29;102910.06;;;-8.10;100.00
45763;BME280;37512;52.408;13.356;2022-12-18T05:03:30;102920.56;;;-7.86;100.00
45763;BME280;37512;52.408;13.356;2022-12-18T05:07:32;102915.16;;;-8.01;100.00
45763;BME280;37512;52.408;13.356;2022-12-18T05:11:34;102921.91;;;-8.41;100.00
45763;BME280;37512;52.408;13.356;2022-12-18T05:15:35;102935.22;;;-8.63;100.00
45763;BME280;37512;52.408;13.356;2022-12-18T05:19:38;102938.97;;;-8.49;100.00
45763;BME280;37512;52.408;13.356;2022-12-18T05:23:39;102929.78;;;-8.25;100.00
45763;BME280;37512;52.408;13.356;2022-12-18T05:27:41;102934.88;;;-8.30;100.00
45763;BME280;37512;52.408;13.356;2022-12-18T05:31:43;102945.75;;;-8.08;100.00
45763;BME280;37512;52.408;13.356;2022-12-18T05:35:50;102957.47;;;-8.01;100.00
45763;BME280;37512;52.408;13.356;2022-12-18T05:39:52;102954.97;;;-8.32;100.00
45763;BME280;37512;52.408;13.356;2022-12-18T05:43:53;102957.00;;;-8.20;100.00
45763;BME280;37512;52.408;13.356;2022-12-18T05:47:55;102957.94;;;-8.42;100.00
45763;BME280;37512;52.408;13.356;2022-12-18T05:51:57;102961.44;;;-8.12;100.00
45763;BME280;37512;52.408;13.356;2022-12-18T05:56:03;102959.88;;;-8.21;100.00
45763;BME280;37512;52.408;13.356;2022-12-18T06:00:05;102965.72;;;-8.17;100.00
45763;BME280;37512;52.408;13.356;2022-12-18T06:04:07;102966.22;;;-8.14;100.00
45763;BME280;37512;52.408;13.356;2022-12-18T06:08:10;102972.78;;;-8.16;100.00
45763;BME280;37512;52.408;13.356;2022-12-18T06:12:11;102978.28;;;-8.10;100.00
45763;BME280;37512;52.408;13.356;2022-12-18T06:16:13;102977.81;;;-8.13;100.00
45763;BME280;37512;52.408;13.356;2022-12-18T06:20:14;102984.69;;;-8.11;100.00
45763;BME280;37512;52.408;13.356;2022-12-18T06:24:17;102993.59;;;-8.10;100.00
45763;BME280;37512;52.408;13.356;2022-12-18T06:28:19;102991.75;;;-8.10;100.00
45763;BME280;37512;52.408;13.356;2022-12-18T06:32:21;102982.47;;;-8.07;100.00
45763;BME280;37512;52.408;13.356;2022-12-18T06:36:22;102988.59;;;-7.99;100.00
45763;BME280;37512;52.408;13.356;2022-12-18T06:40:24;103006.72;;;-7.92;100.00
45763;BME280;37512;52.408;13.356;2022-12-18T06:44:25;103004.41;;;-7.81;100.00
45763;BME280;37512;52.408;13.356;2022-12-18T06:48:27;103006.25;;;-7.66;100.00
45763;BME280;37512;52.408;13.356;2022-12-18T06:52:31;103025.25;;;-7.74;100.00
45763;BME280;37512;52.408;13.356;2022-12-18T06:56:33;103026.34;;;-7.69;100.00
45763;BME280;37512;52.408;13.356;2022-12-18T07:00:34;103025.69;;;-7.71;100.00
45763;BME280;37512;52.408;13.356;2022-12-18T07:04:36;103022.63;;;-7.53;100.00
45763;BME280;37512;52.408;13.356;2022-12-18T07:08:37;103039.44;;;-7.51;100.00
45763;BME280;37512;52.408;13.356;2022-12-18T07:12:39;103022.25;;;-7.50;100.00
45763;BME280;37512;52.408;13.356;2022-12-18T07:16:40;103019.00;;;-7.45;100.00
45763;BME280;37512;52.408;13.356;2022-12-18T07:20:42;103034.31;;;-7.46;100.00
45763;BME280;37512;52.408;13.356;2022-12-18T07:24:43;103020.22;;;-7.63;100.00
45763;BME280;37512;52.408;13.356;2022-12-18T07:28:45;103025.41;;;-7.46;100.00
45763;BME280;37512;52.408;13.356;2022-12-18T07:32:46;103027.66;;;-7.50;100.00
45763;BME280;37512;52.408;13.356;2022-12-18T07:36:48;103028.88;;;-7.52;100.00
45763;BME280;37512;52.408;13.356;2022-12-18T07:40:49;103033.69;;;-7.63;100.00
45763;BME280;37512;52.408;13.356;2022-12-18T07:44:51;103024.38;;;-7.45;100.00
45763;BME280;37512;52.408;13.356;2022-12-18T07:48:52;103027.63;;;-7.35;100.00
45763;BME280;37512;52.408;13.356;2022-12-18T07:52:54;103023.53;;;-7.46;100.00
45763;BME280;37512;52.408;13.356;2022-12-18T07:56:55;103014.44;;;-7.45;100.00
45763;BME280;37512;52.408;13.356;2022-12-18T08:01:04;103022.03;;;-7.33;100.00
45763;BME280;37512;52.408;13.356;2022-12-18T08:05:06;103030.31;;;-7.35;100.00
45763;BME280;37512;52.408;13.356;2022-12-18T08:09:09;103027.31;;;-7.25;100.00
45763;BME280;37512;52.408;13.356;2022-12-18T08:13:11;103034.28;;;-7.16;100.00
45763;BME280;37512;52.408;13.356;2022-12-18T08:17:12;103038.75;;;-7.23;100.00
45763;BME280;37512;52.408;13.356;2022-12-18T08:21:19;103043.06;;;-7.29;100.00
45763;BME280;37512;52.408;13.356;2022-12-18T08:25:22;103050.28;;;-7.00;100.00
45763;BME280;37512;52.408;13.356;2022-12-18T08:29:24;103044.97;;;-7.08;100.00
45763;BME280;37512;52.408;13.356;2022-12-18T08:33:25;103042.28;;;-7.08;100.00
45763;BME280;37512;52.408;13.356;2022-12-18T08:37:27;103038.75;;;-7.23;100.00
45763;BME280;37512;52.408;13.356;2022-12-18T08:41:29;103039.06;;;-7.18;100.00
45763;BME280;37512;52.408;13.356;2022-12-18T08:45:31;103057.72;;;-6.80;100.00
45763;BME280;37512;52.408;13.356;2022-12-18T08:49:33;103057.78;;;-6.95;100.00
45763;BME280;37512;52.408;13.356;2022-12-18T08:53:36;103062.88;;;-6.85;100.00
45763;BME280;37512;52.408;13.356;2022-12-18T08:57:38;103074.91;;;-6.88;100.00
45763;BME280;37512;52.408;13.356;2022-12-18T09:01:39;103084.56;;;-6.79;100.00
45763;BME280;37512;52.408;13.356;2022-12-18T09:05:41;103081.88;;;-6.94;100.00
45763;BME280;37512;52.408;13.356;2022-12-18T09:09:43;103089.41;;;-6.89;100.00
45763;BME280;37512;52.408;13.356;2022-12-18T09:13:44;103102.66;;;-6.94;100.00
45763;BME280;37512;52.408;13.356;2022-12-18T09:17:46;103091.97;;;-7.02;100.00
45763;BME280;37512;52.408;13.356;2022-12-18T09:21:48;103095.19;;;-6.92;100.00
45763;BME280;37512;52.408;13.356;2022-12-18T09:25:49;103101.91;;;-6.88;100.00
45763;BME280;37512;52.408;13.356;2022-12-18T09:29:50;103090.59;;;-7.13;100.00
45763;BME280;37512;52.408;13.356;2022-12-18T09:33:54;103098.88;;;-7.00;100.00
45763;BME280;37512;52.408;13.356;2022-12-18T09:37:56;103090.53;;;-6.83;100.00
45763;BME280;37512;52.408;13.356;2022-12-18T09:41:58;103079.72;;;-6.83;100.00
45763;BME280;37512;52.408;13.356;2022-12-18T09:46:05;103066.97;;;-6.89;100.00
45763;BME280;37512;52.408;13.356;2022-12-18T09:50:37;103079.34;;;-6.80;100.00
45763;BME280;37512;52.408;13.356;2022-12-18T09:54:41;103064.69;;;-6.71;100.00
45763;BME280;37512;52.408;13.356;2022-12-18T09:58:51;103063.97;;;-6.80;100.00
45763;BME280;37512;52.408;13.356;2022-12-18T10:03:02;103048.47;;;-6.71;100.00
45763;BME280;37512;52.408;13.356;2022-12-18T10:07:15;103044.19;;;-6.65;100.00
45763;BME280;37512;52.408;13.356;2022-12-18T10:11:35;103037.69;;;-6.49;100.00
45763;BME280;37512;52.408;13.356;2022-12-18T10:20:13;103022.38;;;-6.42;100.00
45763;BME280;37512;52.408;13.356;2022-12-18T10:24:24;103037.16;;;-6.38;100.00
45763;BME280;37512;52.408;13.356;2022-12-18T10:28:30;103029.41;;;-6.20;100.00
45763;BME280;37512;52.408;13.356;2022-12-18T10:32:32;103023.13;;;-6.27;100.00
45763;BME280;37512;52.408;13.356;2022-12-18T10:36:33;103029.53;;;-6.28;100.00
45763;BME280;37512;52.408;13.356;2022-12-18T10:45:01;103009.59;;;-5.92;100.00
45763;BME280;37512;52.408;13.356;2022-12-18T10:49:03;103011.22;;;-6.04;100.00
45763;BME280;37512;52.408;13.356;2022-12-18T10:53:06;103005.63;;;-6.03;100.00
45763;BME280;37512;52.408;13.356;2022-12-18T10:57:15;102996.31;;;-5.87;100.00
45763;BME280;37512;52.408;13.356;2022-12-18T11:01:18;102989.72;;;-5.78;100.00
45763;BME280;37512;52.408;13.356;2022-12-18T11:09:34;102986.44;;;-5.67;100.00
45763;BME280;37512;52.408;13.356;2022-12-18T11:13:36;102984.88;;;-5.89;100.00
45763;BME280;37512;52.408;13.356;2022-12-18T11:17:38;102994.88;;;-5.83;100.00
45763;BME280;37512;52.408;13.356;2022-12-18T11:21:41;102990.25;;;-5.48;100.00
45763;BME280;37512;52.408;13.356;2022-12-18T11:26:05;102993.03;;;-5.34;100.00
45763;BME280;37512;52.408;13.356;2022-12-18T11:34:28;102991.69;;;-5.58;100.00
45763;BME280;37512;52.408;13.356;2022-12-18T11:38:39;102983.19;;;-5.49;100.00
45763;BME280;37512;52.408;13.356;2022-12-18T11:42:50;102982.78;;;-5.46;100.00
45763;BME280;37512;52.408;13.356;2022-12-18T11:47:05;102988.16;;;-5.52;100.00
45763;BME280;37512;52.408;13.356;2022-12-18T11:51:15;102990.84;;;-5.59;100.00
45763;BME280;37512;52.408;13.356;2022-12-18T12:00:11;103009.66;;;-5.44;100.00
45763;BME280;37512;52.408;13.356;2022-12-18T12:04:36;103007.97;;;-5.52;100.00
45763;BME280;37512;52.408;13.356;2022-12-18T12:13:12;103004.03;;;-5.49;100.00
45763;BME280;37512;52.408;13.356;2022-12-18T12:17:42;103013.19;;;-5.43;100.00
45763;BME280;37512;52.408;13.356;2022-12-18T12:21:56;103019.50;;;-5.30;100.00
45763;BME280;37512;52.408;13.356;2022-12-18T12:39:06;103043.66;;;-5.70;100.00
45763;BME280;37512;52.408;13.356;2022-12-18T12:43:21;103030.13;;;-5.70;100.00
45763;BME280;37512;52.408;13.356;2022-12-18T12:47:27;103026.19;;;-5.67;100.00
45763;BME280;37512;52.408;13.356;2022-12-18T12:51:38;103009.19;;;-5.54;100.00
45763;BME280;37512;52.408;13.356;2022-12-18T12:55:42;103002.44;;;-5.23;100.00
45763;BME280;37512;52.408;13.356;2022-12-18T13:08:11;102980.81;;;-5.17;100.00
45763;BME280;37512;52.408;13.356;2022-12-18T13:12:16;102980.38;;;-5.20;100.00
45763;BME280;37512;52.408;13.356;2022-12-18T13:21:30;102988.19;;;-5.46;100.00
45763;BME280;37512;52.408;13.356;2022-12-18T13:25:37;102980.53;;;-5.42;100.00
45763;BME280;37512;52.408;13.356;2022-12-18T13:29:46;102984.47;;;-5.44;100.00
45763;BME280;37512;52.408;13.356;2022-12-18T13:33:48;102972.81;;;-5.45;100.00
45763;BME280;37512;52.408;13.356;2022-12-18T13:42:38;102980.03;;;-5.52;100.00
45763;BME280;37512;52.408;13.356;2022-12-18T13:47:00;102975.84;;;-5.61;100.00
45763;BME280;37512;52.408;13.356;2022-12-18T13:51:07;102962.13;;;-5.60;100.00
45763;BME280;37512;52.408;13.356;2022-12-18T13:55:16;102962.56;;;-5.56;100.00
45763;BME280;37512;52.408;13.356;2022-12-18T13:59:23;102961.09;;;-5.52;100.00
45763;BME280;37512;52.408;13.356;2022-12-18T14:03:27;102945.13;;;-5.47;100.00
45763;BME280;37512;52.408;13.356;2022-12-18T14:07:29;102935.75;;;-5.44;100.00
45763;BME280;37512;52.408;13.356;2022-12-18T14:11:37;102950.53;;;-5.47;100.00
45763;BME280;37512;52.408;13.356;2022-12-18T14:15:43;102946.31;;;-5.50;100.00
45763;BME280;37512;52.408;13.356;2022-12-18T14:19:49;102942.16;;;-5.52;100.00
45763;BME280;37512;52.408;13.356;2022-12-18T14:28:17;102917.41;;;-5.49;100.00
45763;BME280;37512;52.408;13.356;2022-12-18T14:32:20;102909.41;;;-5.71;100.00
45763;BME280;37512;52.408;13.356;2022-12-18T14:36:24;102899.84;;;-5.73;100.00
45763;BME280;37512;52.408;13.356;2022-12-18T14:40:26;102895.13;;;-5.58;100.00
45763;BME280;37512;52.408;13.356;2022-12-18T14:44:27;102889.47;;;-5.63;100.00
45763;BME280;37512;52.408;13.356;2022-12-18T14:48:49;102894.69;;;-5.61;100.00
45763;BME280;37512;52.408;13.356;2022-12-18T14:52:50;102888.63;;;-5.63;100.00
45763;BME280;37512;52.408;13.356;2022-12-18T14:57:25;102909.44;;;-5.64;100.00
45763;BME280;37512;52.408;13.356;2022-12-18T15:01:37;102910.28;;;-5.63;100.00
45763;BME280;37512;52.408;13.356;2022-12-18T15:05:40;102926.84;;;-5.80;100.00
45763;BME280;37512;52.408;13.356;2022-12-18T15:09:43;102930.59;;;-5.88;100.00
45763;BME280;37512;52.408;13.356;2022-12-18T15:13:45;102925.13;;;-6.01;100.00
45763;BME280;37512;52.408;13.356;2022-12-18T15:17:47;102929.63;;;-6.15;100.00
45763;BME280;37512;52.408;13.356;2022-12-18T15:21:48;102929.81;;;-6.16;100.00
45763;BME280;37512;52.408;13.356;2022-12-18T15:26:05;102895.09;;;-6.19;100.00
45763;BME280;37512;52.408;13.356;2022-12-18T15:34:19;102920.91;;;-6.10;100.00
45763;BME280;37512;52.408;13.356;2022-12-18T15:38:21;102919.69;;;-6.07;100.00
45763;BME280;37512;52.408;13.356;2022-12-18T15:42:23;102930.31;;;-6.06;100.00
45763;BME280;37512;52.408;13.356;2022-12-18T15:46:43;102929.91;;;-6.03;100.00
45763;BME280;37512;52.408;13.356;2022-12-18T15:50:44;102920.56;;;-5.94;100.00
45763;BME280;37512;52.408;13.356;2022-12-18T15:54:46;102926.22;;;-5.82;100.00
45763;BME280;37512;52.408;13.356;2022-12-18T15:59:20;102925.25;;;-5.74;100.00
45763;BME280;37512;52.408;13.356;2022-12-18T16:03:22;102905.03;;;-5.78;100.00
45763;BME280;37512;52.408;13.356;2022-12-18T16:07:24;102893.53;;;-5.87;100.00
45763;BME280;37512;52.408;13.356;2022-12-18T16:11:32;102891.47;;;-5.85;100.00
45763;BME280;37512;52.408;13.356;2022-12-18T16:15:41;102901.03;;;-5.89;100.00
45763;BME280;37512;52.408;13.356;2022-12-18T16:19:43;102907.25;;;-5.89;100.00
45763;BME280;37512;52.408;13.356;2022-12-18T16:23:44;102900.88;;;-5.81;100.00
45763;BME280;37512;52.408;13.356;2022-12-18T16:27:46;102896.84;;;-5.92;100.00
45763;BME280;37512;52.408;13.356;2022-12-18T16:31:48;102890.44;;;-5.84;100.00
45763;BME280;37512;52.408;13.356;2022-12-18T16:35:51;102881.72;;;-5.86;100.00
45763;BME280;37512;52.408;13.356;2022-12-18T16:40:00;102871.13;;;-5.74;100.00
45763;BME280;37512;52.408;13.356;2022-12-18T16:44:04;102862.13;;;-5.88;100.00
45763;BME280;37512;52.408;13.356;2022-12-18T16:48:05;102861.06;;;-5.94;100.00
45763;BME280;37512;52.408;13.356;2022-12-18T16:52:07;102867.75;;;-5.96;100.00
45763;BME280;37512;52.408;13.356;2022-12-18T16:56:09;102870.00;;;-6.06;100.00
45763;BME280;37512;52.408;13.356;2022-12-18T17:00:11;102863.13;;;-6.02;100.00
45763;BME280;37512;52.408;13.356;2022-12-18T17:04:13;102866.22;;;-6.12;100.00
45763;BME280;37512;52.408;13.356;2022-12-18T17:08:14;102882.63;;;-6.14;100.00
45763;BME280;37512;52.408;13.356;2022-12-18T17:12:16;102866.00;;;-6.17;100.00
45763;BME280;37512;52.408;13.356;2022-12-18T17:16:18;102864.31;;;-6.18;100.00
45763;BME280;37512;52.408;13.356;2022-12-18T17:20:20;102871.44;;;-6.11;100.00
45763;BME280;37512;52.408;13.356;2022-12-18T17:24:21;102873.19;;;-6.31;100.00
45763;BME280;37512;52.408;13.356;2022-12-18T17:28:24;102870.69;;;-6.33;100.00
45763;BME280;37512;52.408;13.356;2022-12-18T17:32:26;102868.75;;;-6.39;100.00
45763;BME280;37512;52.408;13.356;2022-12-18T17:36:28;102875.84;;;-6.38;100.00
45763;BME280;37512;52.408;13.356;2022-12-18T17:40:34;102871.09;;;-6.36;100.00
45763;BME280;37512;52.408;13.356;2022-12-18T17:44:36;102860.06;;;-6.34;100.00
45763;BME280;37512;52.408;13.356;2022-12-18T17:48:38;102859.88;;;-6.33;100.00
45763;BME280;37512;52.408;13.356;2022-12-18T17:52:41;102854.66;;;-6.34;100.00
45763;BME280;37512;52.408;13.356;2022-12-18T17:56:43;102852.84;;;-6.27;100.00
45763;BME280;37512;52.408;13.356;2022-12-18T18:00:45;102844.31;;;-6.24;100.00
45763;BME280;37512;52.408;13.356;2022-12-18T18:04:46;102832.66;;;-6.31;100.00
45763;BME280;37512;52.408;13.356;2022-12-18T18:08:48;102829.34;;;-6.26;100.00
45763;BME280;37512;52.408;13.356;2022-12-18T18:12:50;102824.88;;;-6.47;100.00
45763;BME280;37512;52.408;13.356;2022-12-18T18:17:11;102815.19;;;-6.28;100.00
45763;BME280;37512;52.408;13.356;2022-12-18T18:21:13;102814.75;;;-6.32;100.00
45763;BME280;37512;52.408;13.356;2022-12-18T18:25:16;102809.09;;;-6.44;100.00
45763;BME280;37512;52.408;13.356;2022-12-18T18:29:23;102799.75;;;-6.41;100.00
45763;BME280;37512;52.408;13.356;2022-12-18T18:33:27;102789.78;;;-6.34;100.00
45763;BME280;37512;52.408;13.356;2022-12-18T18:37:28;102790.00;;;-6.36;100.00
45763;BME280;37512;52.408;13.356;2022-12-18T18:41:30;102771.06;;;-6.42;100.00
45763;BME280;37512;52.408;13.356;2022-12-18T18:45:31;102784.81;;;-6.37;100.00
45763;BME280;37512;52.408;13.356;2022-12-18T18:49:33;102774.00;;;-6.37;100.00
45763;BME280;37512;52.408;13.356;2022-12-18T18:53:40;102767.88;;;-6.53;100.00
45763;BME280;37512;52.408;13.356;2022-12-18T18:57:42;102752.38;;;-6.37;100.00
45763;BME280;37512;52.408;13.356;2022-12-18T19:01:44;102746.31;;;-6.46;100.00
45763;BME280;37512;52.408;13.356;2022-12-18T19:05:51;102742.16;;;-6.48;100.00
45763;BME280;37512;52.408;13.356;2022-12-18T19:09:52;102732.75;;;-6.53;100.00
45763;BME280;37512;52.408;13.356;2022-12-18T19:13:55;102740.00;;;-6.60;100.00
45763;BME280;37512;52.408;13.356;2022-12-18T19:17:58;102736.91;;;-6.63;100.00
45763;BME280;37512;52.408;13.356;2022-12-18T19:22:00;102731.34;;;-6.48;100.00
45763;BME280;37512;52.408;13.356;2022-12-18T19:26:03;102730.47;;;-6.56;100.00
45763;BME280;37512;52.408;13.356;2022-12-18T19:30:25;102732.75;;;-6.53;100.00
45763;BME280;37512;52.408;13.356;2022-12-18T19:34:26;102732.16;;;-6.48;100.00
45763;BME280;37512;52.408;13.356;2022-12-18T19:38:28;102725.69;;;-6.60;100.00
45763;BME280;37512;52.408;13.356;2022-12-18T19:42:30;102716.97;;;-6.56;100.00
45763;BME280;37512;52.408;13.356;2022-12-18T19:46:36;102717.59;;;-6.54;100.00
45763;BME280;37512;52.408;13.356;2022-12-18T19:50:42;102712.81;;;-6.58;100.00
45763;BME280;37512;52.408;13.356;2022-12-18T19:54:44;102719.91;;;-6.50;100.00
45763;BME280;37512;52.408;13.356;2022-12-18T19:58:47;102707.03;;;-6.48;100.00
45763;BME280;37512;52.408;13.356;2022-12-18T20:02:49;102712.47;;;-6.35;100.00
45763;BME280;37512;52.408;13.356;2022-12-18T20:06:52;102736.97;;;-6.43;100.00
45763;BME280;37512;52.408;13.356;2022-12-18T20:10:54;102720.34;;;-6.47;100.00
45763;BME280;37512;52.408;13.356;2022-12-18T20:14:55;102700.72;;;-6.62;100.00
45763;BME280;37512;52.408;13.356;2022-12-18T20:18:57;102707.19;;;-6.63;100.00
45763;BME280;37512;52.408;13.356;2022-12-18T20:22:59;102711.13;;;-6.59;100.00
45763;BME280;37512;52.408;13.356;2022-12-18T20:27:01;102702.38;;;-6.68;100.00
45763;BME280;37512;52.408;13.356;2022-12-18T20:31:04;102692.50;;;-6.47;100.00
45763;BME280;37512;52.408;13.356;2022-12-18T20:35:07;102676.22;;;-6.61;100.00
45763;BME280;37512;52.408;13.356;2022-12-18T20:39:09;102682.22;;;-6.72;100.00
45763;BME280;37512;52.408;13.356;2022-12-18T20:43:12;102654.97;;;-6.70;100.00
45763;BME280;37512;52.408;13.356;2022-12-18T20:47:17;102668.09;;;-6.67;100.00
45763;BME280;37512;52.408;13.356;2022-12-18T20:51:20;102667.28;;;-6.68;100.00
45763;BME280;37512;52.408;13.356;2022-12-18T20:55:22;102674.09;;;-6.72;100.00
45763;BME280;37512;52.408;13.356;2022-12-18T20:59:24;102672.22;;;-6.71;100.00
45763;BME280;37512;52.408;13.356;2022-12-18T21:03:26;102659.16;;;-6.68;100.00
45763;BME280;37512;52.408;13.356;2022-12-18T21:07:27;102662.28;;;-6.64;100.00
45763;BME280;37512;52.408;13.356;2022-12-18T21:11:31;102662.50;;;-6.66;100.00
45763;BME280;37512;52.408;13.356;2022-12-18T21:15:52;102654.16;;;-6.71;100.00
45763;BME280;37512;52.408;13.356;2022-12-18T21:19:55;102631.72;;;-6.71;100.00
45763;BME280;37512;52.408;13.356;2022-12-18T21:23:56;102638.41;;;-6.67;100.00
45763;BME280;37512;52.408;13.356;2022-12-18T21:27:59;102643.59;;;-6.66;100.00
45763;BME280;37512;52.408;13.356;2022-12-18T21:32:01;102645.28;;;-6.58;100.00
45763;BME280;37512;52.408;13.356;2022-12-18T21:36:06;102644.84;;;-6.62;100.00
45763;BME280;37512;52.408;13.356;2022-12-18T21:40:08;102657.09;;;-6.66;100.00
45763;BME280;37512;52.408;13.356;2022-12-18T21:44:15;102649.19;;;-6.67;100.00
45763;BME280;37512;52.408;13.356;2022-12-18T21:48:17;102643.38;;;-6.64;100.00
45763;BME280;37512;52.408;13.356;2022-12-18T21:52:20;102643.63;;;-6.53;100.00
45763;BME280;37512;52.408;13.356;2022-12-18T21:57:02;102655.88;;;-6.57;100.00
45763;BME280;37512;52.408;13.356;2022-12-18T22:01:04;102651.50;;;-6.58;100.00
45763;BME280;37512;52.408;13.356;2022-12-18T22:05:06;102644.75;;;-6.00;100.00
45763;BME280;37512;52.408;13.356;2022-12-18T22:09:10;102647.88;;;-5.97;100.00
45763;BME280;37512;52.408;13.356;2022-12-18T22:13:13;102636.44;;;-6.05;100.00